createdAt,value
2023-06-04T00:01:39.984Z,16.67
2023-06-04T00:04:10.430Z,16.67
2023-06-04T00:06:41.434Z,16.63
2023-06-04T00:09:11.381Z,16.59
2023-06-04T00:11:40.181Z,16.56
2023-06-04T00:14:08.823Z,16.58
2023-06-04T00:16:39.888Z,16.62
2023-06-04T00:19:08.072Z,16.58
2023-06-04T00:21:36.325Z,16.56
2023-06-04T00:24:08.522Z,16.57
2023-06-04T00:26:38.605Z,16.55
2023-06-04T00:29:08.053Z,16.50
2023-06-04T00:31:38.392Z,16.41
2023-06-04T00:34:08.277Z,16.31
2023-06-04T00:36:37.349Z,16.27
2023-06-04T00:39:10.940Z,16.23
2023-06-04T00:41:40.953Z,16.18
2023-06-04T00:44:09.444Z,16.13
2023-06-04T00:46:39.456Z,16.07
2023-06-04T00:49:08.188Z,16.02
2023-06-04T00:51:37.971Z,15.89
2023-06-04T00:54:10.630Z,15.91
2023-06-04T00:56:41.199Z,15.86
2023-06-04T00:59:12.851Z,15.83
2023-06-04T01:01:51.567Z,15.81
2023-06-04T01:04:28.481Z,15.76
2023-06-04T01:07:02.776Z,15.76
2023-06-04T01:09:32.163Z,15.73
2023-06-04T01:12:03.028Z,15.64
2023-06-04T01:14:31.274Z,15.53
2023-06-04T01:17:06.244Z,15.51
2023-06-04T01:20:09.850Z,15.44
2023-06-04T01:22:44.323Z,15.42
2023-06-04T01:25:20.920Z,15.28
2023-06-04T01:27:53.918Z,15.24
2023-06-04T01:30:30.159Z,15.18
2023-06-04T01:32:58.666Z,15.18
2023-06-04T01:35:29.684Z,15.14
2023-06-04T01:37:58.098Z,15.12
2023-06-04T01:40:27.993Z,15.12
2023-06-04T01:43:01.366Z,15.02
2023-06-04T01:45:35.943Z,14.99
2023-06-04T01:48:08.994Z,14.94
2023-06-04T01:50:39.522Z,14.82
2023-06-04T01:53:11.579Z,14.79
2023-06-04T01:55:40.218Z,14.78
2023-06-04T01:58:11.270Z,14.76
2023-06-04T02:00:39.513Z,14.71
2023-06-04T02:03:09.716Z,14.66
2023-06-04T02:05:38.797Z,14.61
2023-06-04T02:08:07.645Z,14.59
2023-06-04T02:10:36.128Z,14.52
2023-06-04T02:13:08.840Z,14.49
2023-06-04T02:15:44.046Z,14.50
2023-06-04T02:18:25.972Z,14.48
2023-06-04T02:20:54.108Z,14.44
2023-06-04T02:23:26.146Z,14.37
2023-06-04T02:26:04.304Z,14.37
2023-06-04T02:28:34.035Z,14.33
2023-06-04T02:31:05.374Z,14.33
2023-06-04T02:33:40.953Z,14.30
2023-06-04T02:36:12.826Z,14.30
2023-06-04T02:38:43.225Z,14.31
2023-06-04T02:41:12.277Z,14.29
2023-06-04T02:43:41.513Z,14.22
2023-06-04T02:46:15.462Z,14.15
2023-06-04T02:48:43.535Z,14.14
2023-06-04T02:51:12.854Z,14.09
2023-06-04T02:53:42.115Z,14.03
2023-06-04T02:56:10.733Z,13.99
2023-06-04T02:58:51.089Z,13.94
2023-06-04T03:01:23.269Z,13.94
2023-06-04T03:03:52.989Z,13.89
2023-06-04T03:06:22.349Z,13.83
2023-06-04T03:08:51.080Z,13.85
2023-06-04T03:11:22.138Z,13.72
2023-06-04T03:13:52.969Z,13.70
2023-06-04T03:16:25.420Z,13.70
2023-06-04T03:18:54.728Z,13.66
2023-06-04T03:21:26.067Z,13.65
2023-06-04T03:23:55.204Z,13.57
2023-06-04T03:26:23.646Z,13.57
2023-06-04T03:28:52.236Z,13.56
2023-06-04T03:31:22.043Z,13.56
2023-06-04T03:33:53.688Z,13.54
2023-06-04T03:36:34.335Z,13.46
2023-06-04T03:39:05.616Z,13.45
2023-06-04T03:41:37.925Z,13.35
2023-06-04T03:44:05.971Z,13.32
2023-06-04T03:46:35.494Z,13.35
2023-06-04T03:49:08.533Z,13.36
2023-06-04T03:51:38.966Z,13.38
2023-06-04T03:54:08.553Z,13.32
2023-06-04T03:56:38.521Z,13.31
2023-06-04T03:59:07.695Z,13.37
2023-06-04T04:01:36.173Z,13.42
2023-06-04T04:04:09.055Z,13.45
2023-06-04T04:06:38.133Z,13.49
2023-06-04T04:09:11.940Z,13.51
2023-06-04T04:11:40.772Z,13.55
2023-06-04T04:14:11.597Z,13.57
2023-06-04T04:16:40.615Z,13.60
2023-06-04T04:19:10.432Z,13.60
2023-06-04T04:21:40.897Z,13.61
2023-06-04T04:24:11.567Z,13.68
2023-06-04T04:26:44.008Z,13.69
2023-06-04T04:29:12.435Z,13.72
2023-06-04T04:31:45.513Z,13.72
2023-06-04T04:34:16.085Z,13.78
2023-06-04T04:36:45.179Z,13.82
2023-06-04T04:39:13.314Z,13.84
2023-06-04T04:41:42.433Z,13.83
2023-06-04T04:44:10.674Z,13.83
2023-06-04T04:46:40.299Z,13.82
2023-06-04T04:49:16.575Z,13.83
2023-06-04T04:51:45.356Z,13.80
2023-06-04T04:54:15.483Z,13.86
2023-06-04T04:56:43.927Z,13.93
2023-06-04T04:59:18.047Z,13.98
2023-06-04T05:01:46.306Z,14.02
2023-06-04T05:04:16.988Z,14.10
2023-06-04T05:06:51.421Z,14.14
2023-06-04T05:09:20.089Z,14.19
2023-06-04T05:11:50.110Z,14.24
2023-06-04T05:14:19.322Z,14.29
2023-06-04T05:16:52.512Z,14.29
2023-06-04T05:19:23.856Z,14.35
2023-06-04T05:21:52.529Z,14.37
2023-06-04T05:24:24.595Z,14.47
2023-06-04T05:26:53.167Z,14.52
2023-06-04T05:29:50.637Z,14.59
2023-06-04T05:32:19.535Z,14.67
2023-06-04T05:34:48.999Z,14.74
2023-06-04T05:37:18.426Z,14.78
2023-06-04T05:39:53.749Z,14.78
2023-06-04T05:42:22.608Z,14.82
2023-06-04T05:44:52.151Z,14.90
2023-06-04T05:47:23.530Z,14.90
2023-06-04T05:49:56.138Z,14.94
2023-06-04T05:52:25.943Z,15.02
2023-06-04T05:54:53.914Z,15.09
2023-06-04T05:57:26.995Z,15.17
2023-06-04T05:59:55.228Z,15.27
2023-06-04T06:02:23.399Z,15.40
2023-06-04T06:04:52.564Z,15.47
2023-06-04T06:07:25.908Z,15.56
2023-06-04T06:09:56.605Z,15.66
2023-06-04T06:12:25.259Z,15.77
2023-06-04T06:14:55.513Z,15.85
2023-06-04T06:17:27.572Z,15.92
2023-06-04T06:19:56.273Z,16.02
2023-06-04T06:22:26.804Z,16.08
2023-06-04T06:24:57.507Z,16.22
2023-06-04T06:27:26.669Z,16.23
2023-06-04T06:29:55.348Z,16.30
2023-06-04T06:32:26.376Z,16.36
2023-06-04T06:34:55.489Z,16.40
2023-06-04T06:37:24.109Z,16.46
2023-06-04T06:39:55.579Z,16.52
2023-06-04T06:42:24.577Z,16.61
2023-06-04T06:44:53.964Z,16.70
2023-06-04T06:47:22.350Z,16.77
2023-06-04T06:49:51.160Z,16.84
2023-06-04T06:52:21.189Z,16.89
2023-06-04T06:54:53.934Z,17.00
2023-06-04T06:57:24.412Z,17.10
2023-06-04T06:59:54.940Z,17.20
2023-06-04T07:02:24.504Z,17.32
2023-06-04T07:04:55.152Z,17.42
2023-06-04T07:07:28.034Z,17.54
2023-06-04T07:09:59.212Z,17.62
2023-06-04T07:12:29.346Z,17.70
2023-06-04T07:14:58.400Z,17.79
2023-06-04T07:17:26.584Z,17.86
2023-06-04T07:19:57.844Z,17.96
2023-06-04T07:22:28.732Z,18.04
2023-06-04T07:24:57.267Z,18.14
2023-06-04T07:27:32.828Z,18.19
2023-06-04T07:30:04.161Z,18.28
2023-06-04T07:32:39.683Z,18.33
2023-06-04T07:35:09.418Z,18.40
2023-06-04T07:37:40.911Z,18.48
2023-06-04T07:40:10.027Z,18.57
2023-06-04T07:42:39.545Z,18.65
2023-06-04T07:45:12.023Z,18.71
2023-06-04T07:47:40.276Z,18.80
2023-06-04T07:50:12.556Z,18.88
2023-06-04T07:52:41.272Z,18.96
2023-06-04T07:55:11.800Z,19.06
2023-06-04T07:57:41.253Z,19.11
2023-06-04T08:00:10.519Z,19.19
2023-06-04T08:02:42.328Z,19.27
2023-06-04T08:05:11.877Z,19.33
2023-06-04T08:07:39.998Z,19.39
2023-06-04T08:10:09.904Z,19.46
2023-06-04T08:12:37.987Z,19.55
2023-06-04T08:15:10.576Z,19.63
2023-06-04T08:17:39.260Z,19.67
2023-06-04T08:20:10.113Z,19.72
2023-06-04T08:22:38.734Z,19.78
2023-06-04T08:25:07.697Z,19.84
2023-06-04T08:27:37.596Z,19.93
2023-06-04T08:30:09.683Z,20.00
2023-06-04T08:32:41.336Z,20.07
2023-06-04T08:35:11.928Z,20.16
2023-06-04T08:37:43.061Z,20.22
2023-06-04T08:40:11.725Z,20.32
2023-06-04T08:42:43.754Z,20.40
2023-06-04T08:45:14.810Z,20.49
2023-06-04T08:47:46.816Z,20.58
2023-06-04T08:50:22.700Z,20.69
2023-06-04T08:52:55.558Z,20.76
2023-06-04T08:55:25.002Z,20.86
2023-06-04T08:57:56.462Z,20.92
2023-06-04T09:00:34.666Z,21.08
2023-06-04T09:03:04.702Z,21.15
2023-06-04T09:05:36.185Z,21.22
2023-06-04T09:08:16.301Z,21.31
2023-06-04T09:10:52.788Z,21.40
2023-06-04T09:13:32.830Z,21.48
2023-06-04T09:16:04.015Z,21.57
2023-06-04T09:18:32.791Z,21.63
2023-06-04T09:21:06.805Z,21.70
2023-06-04T09:23:37.788Z,21.78
2023-06-04T09:26:11.414Z,21.91
2023-06-04T09:28:43.228Z,22.01
2023-06-04T09:31:16.656Z,22.13
2023-06-04T09:33:49.883Z,22.17
2023-06-04T09:36:20.385Z,22.20
2023-06-04T09:38:50.640Z,22.28
2023-06-04T09:41:23.712Z,22.31
2023-06-04T09:44:03.824Z,22.35
2023-06-04T09:46:33.837Z,22.40
2023-06-04T09:49:04.681Z,22.43
2023-06-04T09:51:37.819Z,22.50
2023-06-04T09:54:07.887Z,22.59
2023-06-04T09:56:43.431Z,22.70
2023-06-04T09:59:12.422Z,22.78
2023-06-04T10:01:44.518Z,22.89
2023-06-04T10:04:18.436Z,22.96
2023-06-04T10:06:47.660Z,22.97
2023-06-04T10:09:17.119Z,23.05
2023-06-04T10:11:50.642Z,23.12
2023-06-04T10:14:26.730Z,23.16
2023-06-04T10:17:00.560Z,23.20
2023-06-04T10:19:33.496Z,23.23
2023-06-04T10:22:03.913Z,23.29
2023-06-04T10:24:39.716Z,23.40
2023-06-04T10:27:12.519Z,23.50
2023-06-04T10:29:41.796Z,23.63
2023-06-04T10:32:12.594Z,23.70
2023-06-04T10:34:41.268Z,23.74
2023-06-04T10:37:21.486Z,23.82
2023-06-04T10:39:54.023Z,23.87
2023-06-04T10:42:25.809Z,23.91
2023-06-04T10:44:58.303Z,23.91
2023-06-04T10:47:31.754Z,23.97
2023-06-04T10:50:11.095Z,24.07
2023-06-04T10:52:41.996Z,24.09
2023-06-04T10:55:11.297Z,24.19
2023-06-04T10:57:39.805Z,24.25
2023-06-04T11:00:13.987Z,24.31
2023-06-04T11:02:54.379Z,24.35
2023-06-04T11:05:25.924Z,24.38
2023-06-04T11:07:58.064Z,24.39
2023-06-04T11:10:36.186Z,24.37
2023-06-04T11:13:06.133Z,24.40
2023-06-04T11:15:44.021Z,24.48
2023-06-04T11:18:20.937Z,24.56
2023-06-04T11:20:53.568Z,24.59
2023-06-04T11:23:22.981Z,24.66
2023-06-04T11:25:54.927Z,24.67
2023-06-04T11:28:26.019Z,24.76
2023-06-04T11:31:03.727Z,24.81
2023-06-04T11:33:51.475Z,24.90
2023-06-04T11:36:28.459Z,24.98
2023-06-04T11:39:02.187Z,25.01
2023-06-04T11:41:34.385Z,25.04
2023-06-04T11:44:08.162Z,25.03
2023-06-04T11:46:43.495Z,25.03
2023-06-04T11:49:16.210Z,25.07
2023-06-04T11:51:51.950Z,25.14
2023-06-04T11:54:22.191Z,25.23
2023-06-04T11:56:52.992Z,25.34
2023-06-04T11:59:21.942Z,25.40
2023-06-04T12:02:14.817Z,25.40
2023-06-04T12:04:44.623Z,25.52
2023-06-04T12:07:14.610Z,25.67
2023-06-04T12:09:46.246Z,25.81
2023-06-04T12:12:14.632Z,25.94
2023-06-04T12:14:46.194Z,26.11
2023-06-04T12:17:19.394Z,26.20
2023-06-04T12:19:51.747Z,26.21
2023-06-04T12:22:22.544Z,26.21
2023-06-04T12:24:55.016Z,26.36
2023-06-04T12:27:24.409Z,26.49
2023-06-04T12:30:01.585Z,26.63
2023-06-04T12:32:33.158Z,26.74
2023-06-04T12:35:06.254Z,26.87
2023-06-04T12:37:34.412Z,26.98
2023-06-04T12:40:05.315Z,27.09
2023-06-04T12:42:33.544Z,27.20
2023-06-04T12:45:05.079Z,27.32
2023-06-04T12:47:38.218Z,27.45
2023-06-04T12:50:12.385Z,27.60
2023-06-04T12:52:40.945Z,27.69
2023-06-04T12:55:12.429Z,27.75
2023-06-04T12:57:45.533Z,27.83
2023-06-04T13:00:16.156Z,27.80
2023-06-04T13:02:44.522Z,27.88
2023-06-04T13:05:15.047Z,28.01
2023-06-04T13:07:43.349Z,28.11
2023-06-04T13:10:13.157Z,28.11
2023-06-04T13:12:43.768Z,28.29
2023-06-04T13:15:13.789Z,28.44
2023-06-04T13:17:44.039Z,28.60
2023-06-04T13:20:14.994Z,28.74
2023-06-04T13:22:44.909Z,28.78
2023-06-04T13:25:13.173Z,28.86
2023-06-04T13:27:44.905Z,28.80
2023-06-04T13:30:15.333Z,28.86
2023-06-04T13:32:48.138Z,28.80
2023-06-04T13:35:20.580Z,28.87
2023-06-04T13:37:49.098Z,28.96
2023-06-04T13:40:17.433Z,29.10
2023-06-04T13:42:48.031Z,29.21
2023-06-04T13:45:17.911Z,29.20
2023-06-04T13:47:49.118Z,29.30
2023-06-04T13:50:20.167Z,29.49
2023-06-04T13:52:50.718Z,29.58
2023-06-04T13:55:21.055Z,29.76
2023-06-04T13:57:56.577Z,29.95
2023-06-04T14:00:31.631Z,30.11
2023-06-04T14:03:00.154Z,30.23
2023-06-04T14:05:29.756Z,30.34
2023-06-04T14:08:01.465Z,30.52
2023-06-04T14:10:29.897Z,30.69
2023-06-04T14:12:58.461Z,30.73
2023-06-04T14:15:28.398Z,30.76
2023-06-04T14:17:59.668Z,30.89
2023-06-04T14:20:30.152Z,31.13
2023-06-04T14:23:00.760Z,31.27
2023-06-04T14:25:32.305Z,31.43
2023-06-04T14:28:02.658Z,31.59
2023-06-04T14:30:31.140Z,31.75
2023-06-04T14:33:03.301Z,31.82
2023-06-04T14:35:34.635Z,32.00
2023-06-04T14:38:06.976Z,32.18
2023-06-04T14:40:39.346Z,32.13
2023-06-04T14:43:15.998Z,32.00
2023-06-04T14:45:49.999Z,32.25
2023-06-04T14:48:18.299Z,32.49
2023-06-04T14:50:49.353Z,32.60
2023-06-04T14:53:17.817Z,32.39
2023-06-04T14:55:48.340Z,32.61
2023-06-04T14:58:16.723Z,33.01
2023-06-04T15:00:45.438Z,33.81
2023-06-04T15:03:15.042Z,35.62
2023-06-04T15:05:45.937Z,38.05
2023-06-04T15:08:17.748Z,40.40
2023-06-04T15:10:57.530Z,41.95
2023-06-04T15:13:26.512Z,43.94
2023-06-04T15:16:00.213Z,45.23
2023-06-04T15:18:32.446Z,46.52
2023-06-04T15:21:03.523Z,47.52
2023-06-04T15:23:35.179Z,48.26
2023-06-04T15:26:09.861Z,49.06
2023-06-04T15:28:38.947Z,49.47
2023-06-04T15:31:08.759Z,50.34
2023-06-04T15:33:39.639Z,50.90
2023-06-04T15:36:09.124Z,50.74
2023-06-04T15:38:39.871Z,50.51
2023-06-04T15:41:08.501Z,51.10
2023-06-04T15:43:38.978Z,51.23
2023-06-04T15:46:09.700Z,52.09
2023-06-04T15:48:43.014Z,52.55
2023-06-04T15:51:12.888Z,52.46
2023-06-04T15:53:48.436Z,51.79
2023-06-04T15:56:19.369Z,51.63
2023-06-04T15:58:50.410Z,51.49
2023-06-04T16:01:23.356Z,52.06
2023-06-04T16:03:54.847Z,51.73
2023-06-04T16:06:25.864Z,51.26
2023-06-04T16:08:56.772Z,52.83
2023-06-04T16:11:26.398Z,53.07
2023-06-04T16:13:56.388Z,53.61
2023-06-04T16:16:24.983Z,53.29
2023-06-04T16:19:00.378Z,53.75
2023-06-04T16:21:31.925Z,53.19
2023-06-04T16:24:02.745Z,53.18
2023-06-04T16:26:31.411Z,53.05
2023-06-04T16:29:02.218Z,53.42
2023-06-04T16:31:30.603Z,53.62
2023-06-04T16:34:01.445Z,53.32
2023-06-04T16:36:31.939Z,53.58
2023-06-04T16:39:05.130Z,53.59
2023-06-04T16:41:36.538Z,53.69
2023-06-04T16:44:06.233Z,53.17
2023-06-04T16:46:34.501Z,53.37
2023-06-04T16:49:03.690Z,53.19
2023-06-04T16:51:32.176Z,52.51
2023-06-04T16:54:04.982Z,52.38
2023-06-04T16:56:34.136Z,51.50
2023-06-04T16:59:06.725Z,51.45
2023-06-04T17:01:38.170Z,51.10
2023-06-04T17:04:22.824Z,50.39
2023-06-04T17:06:53.922Z,48.63
2023-06-04T17:09:25.996Z,46.92
2023-06-04T17:11:55.872Z,45.77
2023-06-04T17:14:25.747Z,46.45
2023-06-04T17:16:56.647Z,46.70
2023-06-04T17:19:26.610Z,46.93
2023-06-04T17:21:56.227Z,45.72
2023-06-04T17:24:28.127Z,44.04
2023-06-04T17:27:03.051Z,42.33
2023-06-04T17:29:34.408Z,41.14
2023-06-04T17:32:04.466Z,40.02
2023-06-04T17:34:33.250Z,39.07
2023-06-04T17:37:05.462Z,38.17
2023-06-04T17:39:37.395Z,37.37
2023-06-04T17:42:07.779Z,36.93
2023-06-04T17:44:41.253Z,36.15
2023-06-04T17:47:14.903Z,35.76
2023-06-04T17:49:47.052Z,35.13
2023-06-04T17:52:16.118Z,34.54
2023-06-04T17:54:46.899Z,33.99
2023-06-04T17:57:14.932Z,33.34
2023-06-04T17:59:47.230Z,32.71
2023-06-04T18:02:16.234Z,32.12
2023-06-04T18:04:44.199Z,31.36
2023-06-04T18:07:15.860Z,30.81
2023-06-04T18:09:45.296Z,30.09
2023-06-04T18:12:16.016Z,29.64
2023-06-04T18:14:48.158Z,29.23
2023-06-04T18:17:17.679Z,28.77
2023-06-04T18:19:52.344Z,28.42
2023-06-04T18:22:23.366Z,28.20
2023-06-04T18:24:54.610Z,27.91
2023-06-04T18:27:26.938Z,27.56
2023-06-04T18:29:55.207Z,27.39
2023-06-04T18:32:26.197Z,27.14
2023-06-04T18:34:59.053Z,26.90
2023-06-04T18:37:34.433Z,26.71
2023-06-04T18:40:05.454Z,26.46
2023-06-04T18:42:35.444Z,26.25
2023-06-04T18:45:05.311Z,26.01
2023-06-04T18:47:33.330Z,25.86
2023-06-04T18:50:02.338Z,25.73
2023-06-04T18:52:34.701Z,25.55
2023-06-04T18:55:04.396Z,25.37
2023-06-04T18:57:34.855Z,25.24
2023-06-04T19:00:08.735Z,25.04
2023-06-04T19:02:38.613Z,24.88
2023-06-04T19:05:10.895Z,24.72
2023-06-04T19:07:40.594Z,24.63
2023-06-04T19:10:15.866Z,24.47
2023-06-04T19:12:44.338Z,24.26
2023-06-04T19:15:15.943Z,24.19
2023-06-04T19:17:44.308Z,24.04
2023-06-04T19:20:13.606Z,23.94
2023-06-04T19:22:43.363Z,23.79
2023-06-04T19:25:15.924Z,23.65
2023-06-04T19:27:44.141Z,23.58
2023-06-04T19:30:13.373Z,23.44
2023-06-04T19:32:42.246Z,23.30
2023-06-04T19:35:11.099Z,23.21
2023-06-04T19:37:43.170Z,23.12
2023-06-04T19:40:22.192Z,22.97
2023-06-04T19:42:52.339Z,22.91
2023-06-04T19:45:24.389Z,22.85
2023-06-04T19:47:52.750Z,22.82
2023-06-04T19:50:22.301Z,22.77
2023-06-04T19:52:55.751Z,22.72
2023-06-04T19:55:30.054Z,22.66
2023-06-04T19:58:03.541Z,22.60
2023-06-04T20:00:31.924Z,22.51
2023-06-04T20:03:02.114Z,22.42
2023-06-04T20:05:32.820Z,22.34
2023-06-04T20:08:03.531Z,22.29
2023-06-04T20:10:36.206Z,22.20
2023-06-04T20:13:05.576Z,22.14
2023-06-04T20:15:35.384Z,22.05
2023-06-04T20:18:03.517Z,21.99
2023-06-04T20:20:32.176Z,21.93
2023-06-04T20:23:02.464Z,21.89
2023-06-04T20:25:32.355Z,21.84
2023-06-04T20:28:02.123Z,21.76
2023-06-04T20:30:31.380Z,21.72
2023-06-04T20:32:59.383Z,21.62
2023-06-04T20:35:27.856Z,21.59
2023-06-04T20:37:56.373Z,21.55
2023-06-04T20:40:26.265Z,21.46
2023-06-04T20:42:55.278Z,21.36
2023-06-04T20:45:27.709Z,21.28
2023-06-04T20:47:56.704Z,21.20
2023-06-04T20:50:25.424Z,21.06
2023-06-04T20:52:53.514Z,20.96
2023-06-04T20:55:22.984Z,20.84
2023-06-04T20:57:51.740Z,20.74
2023-06-04T21:00:20.232Z,20.64
2023-06-04T21:02:50.122Z,20.50
2023-06-04T21:05:20.666Z,20.37
2023-06-04T21:07:49.200Z,20.28
2023-06-04T21:10:18.231Z,20.20
2023-06-04T21:12:46.784Z,20.13
2023-06-04T21:15:16.167Z,20.05
2023-06-04T21:17:45.938Z,19.96
2023-06-04T21:20:25.132Z,19.88
2023-06-04T21:22:55.114Z,19.86
2023-06-04T21:25:24.765Z,19.82
2023-06-04T21:27:53.748Z,19.78
2023-06-04T21:30:24.782Z,19.75
2023-06-04T21:32:54.654Z,19.71
2023-06-04T21:35:24.893Z,19.69
2023-06-04T21:37:55.889Z,19.66
2023-06-04T21:40:27.966Z,19.61
2023-06-04T21:42:56.431Z,19.57
2023-06-04T21:45:28.067Z,19.52
2023-06-04T21:48:00.294Z,19.52
2023-06-04T21:50:29.680Z,19.53
2023-06-04T21:52:58.188Z,19.53
2023-06-04T21:55:27.768Z,19.54
2023-06-04T21:57:59.078Z,19.40
2023-06-04T22:00:29.659Z,19.38
2023-06-04T22:03:01.493Z,19.37
2023-06-04T22:05:31.308Z,19.33
2023-06-04T22:08:02.225Z,19.31
2023-06-04T22:10:30.449Z,19.26
2023-06-04T22:12:59.614Z,19.18
2023-06-04T22:15:31.572Z,19.17
2023-06-04T22:18:01.014Z,19.18
2023-06-04T22:20:30.982Z,19.16
2023-06-04T22:22:59.202Z,19.12
2023-06-04T22:25:27.825Z,19.09
2023-06-04T22:27:56.646Z,19.06
2023-06-04T22:30:26.591Z,19.05
2023-06-04T22:32:58.456Z,19.04
2023-06-04T22:35:31.041Z,19.02
2023-06-04T22:38:04.877Z,18.94
2023-06-04T22:40:37.395Z,18.89
2023-06-04T22:43:05.872Z,18.87
2023-06-04T22:45:39.236Z,18.82
2023-06-04T22:48:10.674Z,18.77
2023-06-04T22:50:41.841Z,18.71
2023-06-04T22:53:13.854Z,18.67
2023-06-04T22:55:42.763Z,18.62
2023-06-04T22:58:15.185Z,18.58
2023-06-04T23:00:50.193Z,18.50
2023-06-04T23:03:18.611Z,18.47
2023-06-04T23:05:47.361Z,18.42
2023-06-04T23:08:19.395Z,18.42
2023-06-04T23:10:51.636Z,18.37
2023-06-04T23:13:20.175Z,18.34
2023-06-04T23:15:53.470Z,18.31
2023-06-04T23:18:23.999Z,18.27
2023-06-04T23:20:52.558Z,18.22
2023-06-04T23:23:28.297Z,18.15
2023-06-04T23:25:58.484Z,18.10
2023-06-04T23:28:29.286Z,17.99
2023-06-04T23:31:00.734Z,17.90
2023-06-04T23:33:30.989Z,17.87
2023-06-04T23:35:59.685Z,17.75
2023-06-04T23:38:31.883Z,17.69
2023-06-04T23:41:00.572Z,17.59
2023-06-04T23:43:28.949Z,17.58
2023-06-04T23:45:58.208Z,17.49
2023-06-04T23:48:30.489Z,17.42
2023-06-04T23:50:58.421Z,17.33
2023-06-04T23:53:38.541Z,17.30
2023-06-04T23:56:09.755Z,17.23
2023-06-04T23:58:38.451Z,17.20
